Time;durP1;ratioP1;P1;durP2;ratioP2;P2;SDS_P1;SDS_P2;PMS_P1;PMS_P2;Temp;Humidity;BMP_temperature;BMP_pressure;BME280_temperature;BME280_humidity;BME280_pressure;Samples;Min_cycle;Max_cycle;Signal;HPM_P1;HPM_P2
2022/08/27 00:02:05;;;;;;;247.07;193.23;;;;;;;;;;4980479;28;20236;-70
2022/08/27 00:04:31;;;;;;;217.75;185.40;;;;;;;;;;4985748;28;20611;-70
2022/08/27 00:06:57;;;;;;;258.15;190.52;;;;;;;;;;4991616;28;20741;-69
2022/08/27 00:09:24;;;;;;;225.45;183.00;;;;;;;;;;4983809;28;20671;-70
2022/08/27 00:11:50;;;;;;;273.83;201.25;;;;;;;;;;4965116;28;20598;-70
2022/08/27 00:14:16;;;;;;;203.88;175.13;;;;;;;;;;4963748;28;20635;-70
2022/08/27 00:16:42;;;;;;;241.20;188.40;;;;;;;;;;4976270;28;20214;-70
2022/08/27 00:19:08;;;;;;;224.55;179.10;;;;;;;;;;4977044;28;20817;-69
2022/08/27 00:21:34;;;;;;;271.90;197.65;;;;;;;;;;4976877;28;20182;-70
2022/08/27 00:24:00;;;;;;;268.90;196.32;;;;;;;;;;4975393;28;20698;-70
2022/08/27 00:26:26;;;;;;;245.35;183.38;;;;;;;;;;4978316;28;20217;-70
2022/08/27 00:28:52;;;;;;;229.07;177.10;;;;;;;;;;4981497;28;20324;-70
2022/08/27 00:31:18;;;;;;;227.05;174.35;;;;;;;;;;4963322;28;20225;-71
2022/08/27 00:33:45;;;;;;;286.10;198.80;;;;;;;;;;4975681;28;20317;-70
2022/08/27 00:36:11;;;;;;;269.85;199.73;;;;;;;;;;4984412;28;20201;-71
2022/08/27 00:38:38;;;;;;;245.18;191.95;;;;;;;;;;4979535;28;20217;-70
2022/08/27 00:41:06;;;;;;;210.50;178.30;;;;;;;;;;4979971;28;20210;-70
2022/08/27 00:43:43;;;;;;;209.82;176.30;;;;;;;;;;4974805;28;20715;-69
2022/08/27 00:46:14;;;;;;;217.85;183.05;;;;;;;;;;4976424;28;20214;-69
2022/08/27 00:48:40;;;;;;;270.05;195.38;;;;;;;;;;4974341;28;20213;-70
2022/08/27 00:51:06;;;;;;;219.20;175.90;;;;;;;;;;4975621;28;20272;-69
2022/08/27 00:53:32;;;;;;;260.20;189.68;;;;;;;;;;4975417;28;20215;-69
2022/08/27 00:56:08;;;;;;;231.25;180.07;;;;;;;;;;4977452;28;20230;-70
2022/08/27 00:58:42;;;;;;;233.60;178.18;;;;;;;;;;4975877;28;20213;-69
2022/08/27 01:01:10;;;;;;;207.73;173.27;;;;;;;;;;4979037;28;20280;-69
2022/08/27 01:03:36;;;;;;;275.27;197.57;;;;;;;;;;4973484;28;20181;-70
2022/08/27 01:06:04;;;;;;;219.80;176.13;;;;;;;;;;4975133;28;20174;-70
2022/08/27 01:08:32;;;;;;;252.73;189.90;;;;;;;;;;4974663;28;20360;-69
2022/08/27 01:10:59;;;;;;;218.73;179.00;;;;;;;;;;4986658;28;20216;-71
2022/08/27 01:13:28;;;;;;;232.95;184.45;;;;;;;;;;4974673;28;20229;-69
2022/08/27 01:15:57;;;;;;;318.60;218.05;;;;;;;;;;4975561;28;20249;-70
2022/08/27 01:18:24;;;;;;;216.93;176.60;;;;;;;;;;4962431;28;20200;-70
2022/08/27 01:20:53;;;;;;;237.25;185.07;;;;;;;;;;4974689;28;20213;-70
2022/08/27 01:23:32;;;;;;;228.50;178.30;;;;;;;;;;4979393;28;20213;-69
2022/08/27 01:25:58;;;;;;;251.90;186.15;;;;;;;;;;4975482;28;20213;-69
2022/08/27 01:28:25;;;;;;;228.98;174.75;;;;;;;;;;4980662;28;20313;-70
2022/08/27 01:30:51;;;;;;;243.68;182.98;;;;;;;;;;4978798;28;20213;-70
2022/08/27 01:33:18;;;;;;;228.57;176.30;;;;;;;;;;4961874;28;20185;-70
2022/08/27 01:35:45;;;;;;;278.05;197.85;;;;;;;;;;4979641;28;20305;-70
2022/08/27 01:38:11;;;;;;;224.77;175.82;;;;;;;;;;4979331;28;20225;-70
2022/08/27 01:40:38;;;;;;;256.65;185.43;;;;;;;;;;4980294;28;20477;-69
2022/08/27 01:43:04;;;;;;;227.68;173.70;;;;;;;;;;4978406;28;20213;-70
2022/08/27 01:45:32;;;;;;;248.60;188.00;;;;;;;;;;4979004;28;20177;-70
2022/08/27 01:47:58;;;;;;;219.80;170.65;;;;;;;;;;4961522;28;20214;-70
2022/08/27 01:50:25;;;;;;;227.65;172.70;;;;;;;;;;4978638;28;20560;-69
2022/08/27 01:52:53;;;;;;;245.82;177.00;;;;;;;;;;4959703;28;20205;-70
2022/08/27 01:55:20;;;;;;;214.23;169.18;;;;;;;;;;4992101;28;20224;-70
2022/08/27 01:57:46;;;;;;;241.45;177.73;;;;;;;;;;4985829;28;20262;-70
2022/08/27 02:00:15;;;;;;;243.70;180.02;;;;;;;;;;4979168;28;20206;-70
2022/08/27 02:02:42;;;;;;;225.23;181.45;;;;;;;;;;4971289;28;20682;-70
2022/08/27 02:05:09;;;;;;;244.02;186.00;;;;;;;;;;4977637;28;20228;-70
2022/08/27 02:07:35;;;;;;;230.32;182.68;;;;;;;;;;4978728;28;20209;-70
2022/08/27 02:10:01;;;;;;;226.93;176.40;;;;;;;;;;4970055;28;20582;-69
2022/08/27 02:12:27;;;;;;;252.10;191.45;;;;;;;;;;4986601;28;20189;-70
2022/08/27 02:14:53;;;;;;;241.88;181.20;;;;;;;;;;4982332;28;20186;-70
2022/08/27 02:17:19;;;;;;;232.80;186.85;;;;;;;;;;4991502;28;20223;-71
2022/08/27 02:19:45;;;;;;;234.00;186.88;;;;;;;;;;4986995;28;20816;-70
2022/08/27 02:22:11;;;;;;;232.02;184.57;;;;;;;;;;4969766;28;20272;-70
2022/08/27 02:24:38;;;;;;;194.40;172.27;;;;;;;;;;4983628;28;20181;-70
2022/08/27 02:27:04;;;;;;;280.65;204.15;;;;;;;;;;4986514;28;20201;-70
2022/08/27 02:29:30;;;;;;;209.82;178.65;;;;;;;;;;4984981;28;20222;-70
2022/08/27 02:31:56;;;;;;;236.27;182.93;;;;;;;;;;4981878;28;20761;-70
2022/08/27 02:34:22;;;;;;;214.70;176.63;;;;;;;;;;4979432;28;20753;-70
2022/08/27 02:36:48;;;;;;;268.23;197.20;;;;;;;;;;4980452;28;20308;-69
2022/08/27 02:39:14;;;;;;;234.57;180.73;;;;;;;;;;4982598;28;20272;-70
2022/08/27 02:41:40;;;;;;;258.30;184.07;;;;;;;;;;4981714;28;20300;-69
2022/08/27 02:44:06;;;;;;;241.18;183.38;;;;;;;;;;4978248;28;20304;-69
2022/08/27 02:46:31;;;;;;;223.80;174.07;;;;;;;;;;4974693;28;20873;-70
2022/08/27 02:48:57;;;;;;;227.80;184.45;;;;;;;;;;5005883;23;20250;-47
2022/08/27 02:51:24;;;;;;;223.85;186.10;;;;;;;;;;5009559;28;20272;-48
2022/08/27 02:53:50;;;;;;;212.70;185.90;;;;;;;;;;5009595;28;20680;-47
2022/08/27 02:56:16;;;;;;;225.52;194.70;;;;;;;;;;5009366;28;20217;-48
2022/08/27 02:58:42;;;;;;;236.30;189.50;;;;;;;;;;5008888;28;20712;-48
2022/08/27 03:01:08;;;;;;;217.32;180.15;;;;;;;;;;5008111;28;20221;-47
2022/08/27 03:03:34;;;;;;;191.05;170.35;;;;;;;;;;5007294;28;20626;-48
2022/08/27 03:06:00;;;;;;;212.43;180.70;;;;;;;;;;5009008;28;20256;-48
2022/08/27 03:08:26;;;;;;;218.52;179.95;;;;;;;;;;5009178;28;20641;-48
2022/08/27 03:10:56;;;;;;;190.38;165.30;;;;;;;;;;5009378;28;20221;-48
2022/08/27 03:13:22;;;;;;;206.57;175.13;;;;;;;;;;5009173;28;20593;-48
2022/08/27 03:15:48;;;;;;;227.80;191.23;;;;;;;;;;5009199;28;20251;-47
2022/08/27 03:18:17;;;;;;;200.88;172.63;;;;;;;;;;5009491;28;20188;-48
2022/08/27 03:20:44;;;;;;;220.00;177.95;;;;;;;;;;5007414;28;20205;-48
2022/08/27 03:23:11;;;;;;;202.88;172.98;;;;;;;;;;5008945;28;20221;-47
2022/08/27 03:25:37;;;;;;;197.73;168.80;;;;;;;;;;5009269;28;20219;-47
2022/08/27 03:28:04;;;;;;;217.55;176.73;;;;;;;;;;5008788;28;20296;-47
2022/08/27 03:30:30;;;;;;;198.95;167.30;;;;;;;;;;5009275;28;20236;-48
2022/08/27 03:32:56;;;;;;;215.98;170.82;;;;;;;;;;5009220;28;20169;-48
2022/08/27 03:35:22;;;;;;;226.77;186.57;;;;;;;;;;5008781;28;20235;-47
2022/08/27 03:37:48;;;;;;;214.18;186.65;;;;;;;;;;5008682;28;20621;-47
2022/08/27 03:40:14;;;;;;;215.07;179.93;;;;;;;;;;5008835;28;20216;-46
2022/08/27 03:42:40;;;;;;;218.93;183.15;;;;;;;;;;5008634;28;20272;-48
2022/08/27 03:45:07;;;;;;;223.43;183.90;;;;;;;;;;5008926;28;20673;-48
2022/08/27 03:47:34;;;;;;;213.73;188.25;;;;;;;;;;5008190;28;20236;-48
2022/08/27 03:50:00;;;;;;;213.05;183.55;;;;;;;;;;5008847;28;20560;-47
2022/08/27 03:52:27;;;;;;;214.77;180.23;;;;;;;;;;5008812;28;20220;-47
2022/08/27 03:54:53;;;;;;;217.88;184.32;;;;;;;;;;5008430;28;20243;-48
2022/08/27 03:57:19;;;;;;;229.30;192.90;;;;;;;;;;5008583;28;20649;-48
2022/08/27 03:59:44;;;;;;;191.23;169.13;;;;;;;;;;5008310;28;20375;-48
2022/08/27 04:02:11;;;;;;;207.98;175.02;;;;;;;;;;5008405;28;20637;-48
2022/08/27 04:04:37;;;;;;;212.18;180.93;;;;;;;;;;5008176;28;20239;-48
2022/08/27 04:07:03;;;;;;;216.35;186.23;;;;;;;;;;5008363;28;20212;-48
2022/08/27 04:09:29;;;;;;;226.60;183.75;;;;;;;;;;5008406;28;20419;-48
2022/08/27 04:11:55;;;;;;;214.00;186.55;;;;;;;;;;5008822;28;20201;-48
2022/08/27 04:14:21;;;;;;;209.27;179.88;;;;;;;;;;5007997;28;20220;-48
2022/08/27 04:16:47;;;;;;;218.55;190.40;;;;;;;;;;5007157;28;20224;-48
2022/08/27 04:19:13;;;;;;;216.40;188.43;;;;;;;;;;5006720;28;20296;-47
2022/08/27 04:21:39;;;;;;;213.73;182.80;;;;;;;;;;5008147;28;20258;-47
2022/08/27 04:24:05;;;;;;;207.15;183.25;;;;;;;;;;5008249;28;20276;-47
2022/08/27 04:26:31;;;;;;;185.52;165.70;;;;;;;;;;5008611;28;20220;-47
2022/08/27 04:28:57;;;;;;;210.65;185.43;;;;;;;;;;5008091;28;20248;-48
2022/08/27 04:31:24;;;;;;;222.00;190.48;;;;;;;;;;5008161;28;20630;-47
2022/08/27 04:33:52;;;;;;;210.98;175.25;;;;;;;;;;5007942;28;20233;-48
2022/08/27 04:36:18;;;;;;;209.57;181.30;;;;;;;;;;5006755;28;20201;-48
2022/08/27 04:38:44;;;;;;;199.52;172.10;;;;;;;;;;5007774;28;20221;-47
2022/08/27 04:41:25;;;;;;;212.57;174.93;;;;;;;;;;5007973;28;20253;-48
2022/08/27 04:43:52;;;;;;;221.80;188.43;;;;;;;;;;5007832;28;20323;-47
2022/08/27 04:46:19;;;;;;;194.05;173.23;;;;;;;;;;5008042;28;20270;-47
2022/08/27 04:48:45;;;;;;;212.10;186.15;;;;;;;;;;5007409;28;20232;-48
2022/08/27 04:51:11;;;;;;;214.25;187.50;;;;;;;;;;5008082;28;20165;-48
2022/08/27 04:53:37;;;;;;;219.80;185.35;;;;;;;;;;5007689;28;20700;-48
2022/08/27 04:56:03;;;;;;;228.07;194.63;;;;;;;;;;5022133;28;20217;-47
2022/08/27 04:58:30;;;;;;;217.52;186.98;;;;;;;;;;5007769;28;20860;-48
2022/08/27 05:01:00;;;;;;;194.27;170.85;;;;;;;;;;5007551;28;20709;-48
2022/08/27 05:03:27;;;;;;;223.20;185.57;;;;;;;;;;5007748;28;20197;-48
2022/08/27 05:05:58;;;;;;;213.27;186.13;;;;;;;;;;5006579;28;20281;-47
2022/08/27 05:08:24;;;;;;;204.23;176.48;;;;;;;;;;5007829;28;20660;-48
2022/08/27 05:10:50;;;;;;;216.52;182.95;;;;;;;;;;5007398;28;20208;-48
2022/08/27 05:13:20;;;;;;;206.25;175.25;;;;;;;;;;5007379;28;20236;-48
2022/08/27 05:15:46;;;;;;;198.57;166.10;;;;;;;;;;5007218;28;20216;-48
2022/08/27 05:18:13;;;;;;;218.63;174.05;;;;;;;;;;5006088;28;20258;-48
2022/08/27 05:20:43;;;;;;;215.20;173.93;;;;;;;;;;5006967;28;20227;-48
2022/08/27 05:23:10;;;;;;;232.73;187.48;;;;;;;;;;5006093;28;20221;-48
2022/08/27 05:25:40;;;;;;;196.85;174.77;;;;;;;;;;5007497;28;20209;-49
2022/08/27 05:28:06;;;;;;;186.90;166.40;;;;;;;;;;5012019;28;20227;-49
2022/08/27 05:30:43;;;;;;;206.23;172.32;;;;;;;;;;5010720;28;20172;-49
2022/08/27 05:33:09;;;;;;;191.05;168.30;;;;;;;;;;5010780;28;20226;-49
2022/08/27 05:35:42;;;;;;;207.50;171.57;;;;;;;;;;5010960;28;20616;-49
2022/08/27 05:38:08;;;;;;;193.07;164.65;;;;;;;;;;5010690;28;20255;-49
2022/08/27 05:40:34;;;;;;;189.55;155.80;;;;;;;;;;5009977;28;20235;-50
2022/08/27 05:43:00;;;;;;;201.70;165.20;;;;;;;;;;5011940;28;20243;-49
2022/08/27 05:45:26;;;;;;;175.63;155.75;;;;;;;;;;5012025;28;20177;-49
2022/08/27 05:47:52;;;;;;;224.00;179.00;;;;;;;;;;5009953;28;20235;-49
2022/08/27 05:50:18;;;;;;;205.13;170.27;;;;;;;;;;5009881;28;20221;-49
2022/08/27 05:52:44;;;;;;;215.20;181.43;;;;;;;;;;5008131;28;20220;-49
2022/08/27 05:55:11;;;;;;;238.90;188.73;;;;;;;;;;5011451;28;20374;-49
2022/08/27 05:57:37;;;;;;;207.88;174.15;;;;;;;;;;5011630;28;20284;-49
2022/08/27 06:02:48;;;;;;;187.45;152.77;;;;;;;;;;5007745;28;20540;-49
2022/08/27 06:05:14;;;;;;;200.80;154.88;;;;;;;;;;5012124;28;20196;-48
2022/08/27 06:07:40;;;;;;;229.45;182.02;;;;;;;;;;5011148;28;20270;-49
2022/08/27 06:10:06;;;;;;;221.45;181.20;;;;;;;;;;5011829;28;20224;-49
2022/08/27 06:12:33;;;;;;;236.30;183.85;;;;;;;;;;5011146;28;20165;-49
2022/08/27 06:14:59;;;;;;;216.25;173.13;;;;;;;;;;5010108;28;20727;-49
2022/08/27 06:17:25;;;;;;;199.73;172.88;;;;;;;;;;5010836;28;20230;-49
2022/08/27 06:19:51;;;;;;;241.60;198.32;;;;;;;;;;5011336;28;20212;-48
2022/08/27 06:22:17;;;;;;;231.48;191.77;;;;;;;;;;5011996;28;20334;-49
2022/08/27 06:24:43;;;;;;;195.88;174.75;;;;;;;;;;5012625;28;20526;-48
2022/08/27 06:27:10;;;;;;;215.77;170.88;;;;;;;;;;5012991;28;20184;-49
2022/08/27 06:29:36;;;;;;;192.25;160.15;;;;;;;;;;5012435;28;20631;-49
2022/08/27 06:32:03;;;;;;;240.50;187.55;;;;;;;;;;5010931;28;20216;-49
2022/08/27 06:34:29;;;;;;;215.93;187.25;;;;;;;;;;5011788;28;20221;-49
2022/08/27 06:36:55;;;;;;;229.70;194.50;;;;;;;;;;5012245;28;20236;-48
2022/08/27 06:39:20;;;;;;;222.27;185.15;;;;;;;;;;5011935;28;20185;-49
2022/08/27 06:41:49;;;;;;;225.73;182.98;;;;;;;;;;5005433;28;20669;-48
2022/08/27 06:44:15;;;;;;;228.02;182.52;;;;;;;;;;5008624;28;20712;-49
2022/08/27 06:46:42;;;;;;;226.95;184.98;;;;;;;;;;5015115;28;20231;-49
2022/08/27 06:49:08;;;;;;;224.32;190.18;;;;;;;;;;5014138;28;20311;-49
2022/08/27 06:51:36;;;;;;;241.55;207.88;;;;;;;;;;5013832;28;20188;-49
2022/08/27 06:54:05;;;;;;;230.35;192.73;;;;;;;;;;5012743;28;20258;-49
2022/08/27 06:56:31;;;;;;;233.68;200.27;;;;;;;;;;5013084;28;20303;-49
2022/08/27 06:58:59;;;;;;;241.85;193.55;;;;;;;;;;5014390;28;20326;-49
2022/08/27 07:01:27;;;;;;;248.23;194.93;;;;;;;;;;5014548;28;20236;-49
2022/08/27 07:03:57;;;;;;;253.60;205.40;;;;;;;;;;5015057;28;20264;-49
2022/08/27 07:06:23;;;;;;;246.48;197.55;;;;;;;;;;5014785;28;20197;-49
2022/08/27 07:08:49;;;;;;;235.75;190.95;;;;;;;;;;5013869;28;20348;-49
2022/08/27 07:11:15;;;;;;;222.30;186.52;;;;;;;;;;5002998;28;20468;-49
2022/08/27 07:13:41;;;;;;;240.05;195.95;;;;;;;;;;5007920;28;20228;-49
2022/08/27 07:16:09;;;;;;;242.43;182.23;;;;;;;;;;5014041;28;20308;-49
2022/08/27 07:18:35;;;;;;;259.38;205.20;;;;;;;;;;5006118;28;20328;-48
2022/08/27 07:21:02;;;;;;;253.25;199.57;;;;;;;;;;5008441;28;20637;-49
2022/08/27 07:23:29;;;;;;;206.10;183.32;;;;;;;;;;5009405;28;20286;-48
2022/08/27 07:25:55;;;;;;;207.65;180.07;;;;;;;;;;5008317;28;20220;-48
2022/08/27 07:28:21;;;;;;;251.85;206.60;;;;;;;;;;5008338;28;20213;-48
2022/08/27 07:30:47;;;;;;;231.05;195.20;;;;;;;;;;5009209;28;20367;-48
2022/08/27 07:33:13;;;;;;;257.90;211.32;;;;;;;;;;5008467;28;20498;-48
2022/08/27 07:35:39;;;;;;;249.52;207.75;;;;;;;;;;5008476;28;20216;-48
2022/08/27 07:38:05;;;;;;;250.43;207.50;;;;;;;;;;5006382;28;20581;-48
2022/08/27 07:40:31;;;;;;;261.50;211.30;;;;;;;;;;5007722;28;20228;-48
2022/08/27 07:45:46;;;;;;;237.30;191.98;;;;;;;;;;5007831;28;20264;-48
2022/08/27 07:48:12;;;;;;;290.90;222.13;;;;;;;;;;5008544;28;20185;-49
2022/08/27 07:50:38;;;;;;;255.32;198.68;;;;;;;;;;4986680;28;20283;-48
2022/08/27 07:53:04;;;;;;;317.83;237.32;;;;;;;;;;4985895;28;20844;-49
2022/08/27 07:55:30;;;;;;;311.80;234.52;;;;;;;;;;4989251;28;20217;-48
2022/08/27 07:57:56;;;;;;;276.40;210.73;;;;;;;;;;4987084;28;20315;-49
2022/08/27 08:00:22;;;;;;;270.63;217.55;;;;;;;;;;4999050;28;20368;-48
2022/08/27 08:02:48;;;;;;;320.98;243.35;;;;;;;;;;4991910;28;20861;-48
2022/08/27 08:05:15;;;;;;;248.18;197.88;;;;;;;;;;5006045;28;20228;-48
2022/08/27 08:07:41;;;;;;;276.67;206.02;;;;;;;;;;5009716;28;20761;-49
2022/08/27 08:10:10;;;;;;;252.38;214.02;;;;;;;;;;5009821;28;20311;-49
2022/08/27 08:12:37;;;;;;;267.92;216.38;;;;;;;;;;5011385;28;20204;-49
2022/08/27 08:15:05;;;;;;;257.75;218.77;;;;;;;;;;5010084;28;20220;-49
2022/08/27 08:17:32;;;;;;;274.88;224.68;;;;;;;;;;5009168;28;20217;-49
2022/08/27 08:19:58;;;;;;;288.02;231.15;;;;;;;;;;5008943;28;20225;-49
2022/08/27 08:22:24;;;;;;;274.52;222.75;;;;;;;;;;5009084;28;20227;-49
2022/08/27 08:24:50;;;;;;;259.25;219.40;;;;;;;;;;5008615;28;20216;-48
2022/08/27 08:27:16;;;;;;;274.98;229.20;;;;;;;;;;5008593;28;20676;-49
2022/08/27 08:29:42;;;;;;;262.98;226.43;;;;;;;;;;5006058;28;20220;-50
2022/08/27 08:32:08;;;;;;;295.33;246.82;;;;;;;;;;5022729;28;20310;-49
2022/08/27 08:34:34;;;;;;;299.15;252.98;;;;;;;;;;5007814;28;20648;-49
2022/08/27 08:37:00;;;;;;;279.38;232.15;;;;;;;;;;5008199;28;20228;-49
2022/08/27 08:39:26;;;;;;;282.08;241.07;;;;;;;;;;5008620;28;20654;-49
2022/08/27 08:41:57;;;;;;;292.33;244.55;;;;;;;;;;5005056;28;20208;-49
2022/08/27 08:44:37;;;;;;;280.65;246.50;;;;;;;;;;5007679;28;20534;-49
2022/08/27 08:47:07;;;;;;;289.48;251.10;;;;;;;;;;5007606;28;20216;-50
2022/08/27 08:49:51;;;;;;;268.27;224.00;;;;;;;;;;4987764;23;20226;-55
2022/08/27 08:52:31;;;;;;;289.83;251.98;;;;;;;;;;4966467;28;20222;-55
2022/08/27 08:55:12;;;;;;;301.60;238.63;;;;;;;;;;4964111;28;20776;-54
2022/08/27 08:57:48;;;;;;;370.50;283.42;;;;;;;;;;4949067;28;20251;-54
2022/08/27 09:00:15;;;;;;;399.83;283.88;;;;;;;;;;4947978;28;20182;-54
2022/08/27 09:02:45;;;;;;;375.35;263.92;;;;;;;;;;4946858;28;20327;-54
2022/08/27 09:05:11;;;;;;;398.38;281.40;;;;;;;;;;4944950;28;20226;-54
2022/08/27 09:07:44;;;;;;;354.90;272.60;;;;;;;;;;4947545;28;20265;-54
2022/08/27 09:10:10;;;;;;;351.95;267.27;;;;;;;;;;4945667;28;20242;-54
2022/08/27 09:12:36;;;;;;;372.25;273.00;;;;;;;;;;4957059;28;20224;-54
2022/08/27 09:15:03;;;;;;;330.83;252.43;;;;;;;;;;4954340;28;20269;-55
2022/08/27 09:17:29;;;;;;;394.48;273.25;;;;;;;;;;4952167;28;20702;-54
2022/08/27 09:19:54;;;;;;;330.90;262.23;;;;;;;;;;4949521;28;20218;-54
2022/08/27 09:22:23;;;;;;;327.30;254.25;;;;;;;;;;4953761;28;20303;-54
2022/08/27 09:24:58;;;;;;;366.13;279.40;;;;;;;;;;4949493;28;20318;-54
2022/08/27 09:27:24;;;;;;;304.92;251.90;;;;;;;;;;4969499;28;20810;-55
2022/08/27 09:29:52;;;;;;;302.23;246.57;;;;;;;;;;4962197;28;20214;-55
2022/08/27 09:32:22;;;;;;;318.08;254.70;;;;;;;;;;4963726;28;20312;-55
2022/08/27 09:34:48;;;;;;;309.67;244.18;;;;;;;;;;4960542;28;20693;-55
2022/08/27 09:37:16;;;;;;;318.48;256.27;;;;;;;;;;4959175;28;20599;-55
2022/08/27 09:39:45;;;;;;;304.13;252.15;;;;;;;;;;4963643;28;20189;-55
2022/08/27 09:42:22;;;;;;;313.77;252.68;;;;;;;;;;4963811;28;20183;-55
2022/08/27 09:44:48;;;;;;;308.77;252.50;;;;;;;;;;4954839;28;20221;-55
2022/08/27 09:47:14;;;;;;;315.48;262.73;;;;;;;;;;4965979;28;20639;-55
2022/08/27 09:49:41;;;;;;;317.23;263.55;;;;;;;;;;4958600;28;20219;-55
2022/08/27 09:52:07;;;;;;;303.23;248.82;;;;;;;;;;4948787;29;20219;-55
2022/08/27 09:54:41;;;;;;;308.50;265.38;;;;;;;;;;4955961;28;20225;-55
2022/08/27 09:57:08;;;;;;;319.42;268.70;;;;;;;;;;4966616;28;20216;-55
2022/08/27 09:59:36;;;;;;;324.65;262.17;;;;;;;;;;4966914;28;20280;-55
2022/08/27 10:02:15;;;;;;;289.30;243.40;;;;;;;;;;4967134;28;20751;-55
2022/08/27 10:04:49;;;;;;;306.38;261.88;;;;;;;;;;4955971;28;20229;-55
2022/08/27 10:07:24;;;;;;;314.20;259.17;;;;;;;;;;4950094;28;20217;-55
2022/08/27 10:09:58;;;;;;;331.13;267.92;;;;;;;;;;4958102;28;20213;-55
2022/08/27 10:12:32;;;;;;;342.45;263.00;;;;;;;;;;4960201;28;20170;-55
2022/08/27 10:14:59;;;;;;;325.63;267.05;;;;;;;;;;4962955;28;20606;-55
2022/08/27 10:17:29;;;;;;;308.25;247.38;;;;;;;;;;4971037;28;20236;-55
2022/08/27 10:20:01;;;;;;;306.25;243.80;;;;;;;;;;4967200;28;20210;-54
2022/08/27 10:22:27;;;;;;;320.15;256.55;;;;;;;;;;4970502;28;20264;-54
2022/08/27 10:25:02;;;;;;;332.10;263.65;;;;;;;;;;4973911;28;20222;-55
2022/08/27 10:27:34;;;;;;;320.15;258.15;;;;;;;;;;4967011;28;20202;-55
2022/08/27 10:30:03;;;;;;;310.52;254.23;;;;;;;;;;4961724;28;20214;-55
2022/08/27 10:32:30;;;;;;;322.17;256.00;;;;;;;;;;4964184;28;20838;-54
2022/08/27 10:35:07;;;;;;;336.27;267.35;;;;;;;;;;4961312;28;20530;-54
2022/08/27 10:37:45;;;;;;;328.23;275.60;;;;;;;;;;4960697;28;20768;-54
2022/08/27 10:40:15;;;;;;;342.63;284.15;;;;;;;;;;4965859;28;20741;-53
2022/08/27 10:43:04;;;;;;;378.08;284.45;;;;;;;;;;4964975;28;20230;-54
2022/08/27 10:45:41;;;;;;;365.95;299.17;;;;;;;;;;4944553;28;20254;-54
2022/08/27 10:48:23;;;;;;;355.52;274.00;;;;;;;;;;4956418;28;20190;-54
2022/08/27 10:50:53;;;;;;;344.48;283.55;;;;;;;;;;4956920;28;20210;-53
2022/08/27 10:53:30;;;;;;;379.67;312.73;;;;;;;;;;4957433;28;20313;-54
2022/08/27 10:56:02;;;;;;;425.45;335.55;;;;;;;;;;4934800;28;20997;-54
2022/08/27 10:58:39;;;;;;;407.58;320.17;;;;;;;;;;4944804;28;21100;-55
2022/08/27 11:01:07;;;;;;;367.02;305.40;;;;;;;;;;4943715;28;20211;-55
2022/08/27 11:03:42;;;;;;;365.25;303.30;;;;;;;;;;4957665;28;20218;-55
2022/08/27 11:06:21;;;;;;;373.95;310.67;;;;;;;;;;4954132;28;20276;-55
2022/08/27 11:08:50;;;;;;;392.40;306.92;;;;;;;;;;4961596;28;20309;-55
2022/08/27 11:11:26;;;;;;;379.60;314.55;;;;;;;;;;4955366;28;20717;-55
2022/08/27 11:13:52;;;;;;;373.77;317.23;;;;;;;;;;4952278;28;20232;-54
2022/08/27 11:16:25;;;;;;;362.52;300.00;;;;;;;;;;4963487;28;20214;-54
2022/08/27 11:18:53;;;;;;;390.08;320.40;;;;;;;;;;4960159;28;20666;-55
2022/08/27 11:21:24;;;;;;;402.45;326.60;;;;;;;;;;4953593;28;20644;-55
2022/08/27 11:24:09;;;;;;;360.38;301.67;;;;;;;;;;4958576;28;20579;-54
2022/08/27 11:26:37;;;;;;;349.25;293.92;;;;;;;;;;4962819;28;20343;-55
2022/08/27 11:29:07;;;;;;;369.58;312.20;;;;;;;;;;4966303;28;20230;-54
2022/08/27 11:31:37;;;;;;;368.63;310.58;;;;;;;;;;4954724;28;20225;-54
2022/08/27 11:34:09;;;;;;;374.50;301.83;;;;;;;;;;4968017;28;20233;-54
2022/08/27 11:36:50;;;;;;;361.77;304.35;;;;;;;;;;4967608;28;20284;-54
2022/08/27 11:39:35;;;;;;;360.70;293.45;;;;;;;;;;4958694;28;20564;-54
2022/08/27 11:42:07;;;;;;;336.27;282.83;;;;;;;;;;4970058;28;20612;-55
2022/08/27 11:44:39;;;;;;;380.17;305.88;;;;;;;;;;4960986;28;20272;-56
2022/08/27 11:47:10;;;;;;;404.77;323.60;;;;;;;;;;4957080;28;20215;-55
2022/08/27 11:49:45;;;;;;;396.08;321.05;;;;;;;;;;4955291;28;20760;-54
2022/08/27 11:52:12;;;;;;;404.70;326.20;;;;;;;;;;4955008;28;20221;-55
2022/08/27 11:54:49;;;;;;;372.58;298.02;;;;;;;;;;4953451;28;20199;-55
2022/08/27 11:57:16;;;;;;;384.52;297.88;;;;;;;;;;4955438;28;20245;-56
2022/08/27 11:59:42;;;;;;;396.02;312.15;;;;;;;;;;4955985;28;20217;-55
2022/08/27 12:02:20;;;;;;;366.63;290.95;;;;;;;;;;4961378;28;20218;-55
2022/08/27 12:04:46;;;;;;;391.30;315.83;;;;;;;;;;4953171;28;20711;-54
2022/08/27 12:07:17;;;;;;;369.63;309.17;;;;;;;;;;4958831;28;20296;-55
2022/08/27 12:09:53;;;;;;;367.80;307.33;;;;;;;;;;4957805;28;20535;-54
2022/08/27 12:12:32;;;;;;;349.58;299.27;;;;;;;;;;4963409;28;20229;-54
2022/08/27 12:15:04;;;;;;;366.17;310.25;;;;;;;;;;4960949;28;20239;-55
2022/08/27 12:17:47;;;;;;;369.08;298.77;;;;;;;;;;4960053;28;20244;-55
2022/08/27 12:20:26;;;;;;;360.65;285.83;;;;;;;;;;4948392;28;20702;-55
2022/08/27 12:25:57;;;;;;;366.48;298.48;;;;;;;;;;4957982;28;20599;-55
2022/08/27 12:28:23;;;;;;;361.55;307.00;;;;;;;;;;4968959;28;20233;-55
2022/08/27 12:30:50;;;;;;;366.77;309.80;;;;;;;;;;4968406;28;20320;-55
2022/08/27 12:33:39;;;;;;;381.58;326.33;;;;;;;;;;4966976;28;20194;-55
2022/08/27 12:36:09;;;;;;;359.92;302.13;;;;;;;;;;4959153;28;20206;-55
2022/08/27 12:38:35;;;;;;;379.20;317.23;;;;;;;;;;4960510;28;20214;-55
2022/08/27 12:41:07;;;;;;;364.70;311.23;;;;;;;;;;4960850;28;20210;-55
2022/08/27 12:43:34;;;;;;;364.20;316.63;;;;;;;;;;4963282;28;20225;-55
2022/08/27 12:46:06;;;;;;;352.40;312.30;;;;;;;;;;4950935;29;20211;-55
2022/08/27 12:48:36;;;;;;;349.13;303.50;;;;;;;;;;4964158;28;21037;-55
2022/08/27 12:51:03;;;;;;;350.67;309.20;;;;;;;;;;4969374;28;20568;-55
2022/08/27 12:53:43;;;;;;;365.15;305.77;;;;;;;;;;4962220;28;20225;-55
2022/08/27 12:56:09;;;;;;;360.75;313.45;;;;;;;;;;4968925;28;20214;-55
2022/08/27 12:58:34;;;;;;;359.17;313.13;;;;;;;;;;4961287;28;20313;-55
2022/08/27 13:01:08;;;;;;;365.58;307.30;;;;;;;;;;4969206;28;20745;-55
2022/08/27 13:03:37;;;;;;;355.48;300.00;;;;;;;;;;4968803;28;20206;-55
2022/08/27 13:06:13;;;;;;;357.50;303.02;;;;;;;;;;4967682;28;20237;-55
2022/08/27 13:08:39;;;;;;;364.98;308.17;;;;;;;;;;4955439;28;20313;-55
2022/08/27 13:11:20;;;;;;;362.60;317.83;;;;;;;;;;4969171;28;20313;-56
2022/08/27 13:13:47;;;;;;;358.50;311.15;;;;;;;;;;4968392;28;20717;-55
2022/08/27 13:16:13;;;;;;;362.27;306.30;;;;;;;;;;4960589;28;20356;-55
2022/08/27 13:18:39;;;;;;;370.83;305.45;;;;;;;;;;4951204;28;20182;-55
2022/08/27 13:21:23;;;;;;;345.80;289.73;;;;;;;;;;4957771;28;20540;-55
2022/08/27 13:24:09;;;;;;;343.05;304.13;;;;;;;;;;4949608;28;20313;-55
2022/08/27 13:26:37;;;;;;;338.67;289.38;;;;;;;;;;4957484;28;20218;-55
2022/08/27 13:29:07;;;;;;;338.90;292.20;;;;;;;;;;4949581;29;20305;-55
2022/08/27 13:31:34;;;;;;;346.80;301.45;;;;;;;;;;4959576;28;20230;-55
2022/08/27 13:34:01;;;;;;;354.30;302.50;;;;;;;;;;4950151;28;20224;-55
2022/08/27 13:36:29;;;;;;;331.83;285.70;;;;;;;;;;4962477;28;20193;-55
2022/08/27 13:38:55;;;;;;;348.15;294.48;;;;;;;;;;4967116;28;20232;-55
2022/08/27 13:41:48;;;;;;;334.52;295.38;;;;;;;;;;4963476;28;20384;-55
2022/08/27 13:44:18;;;;;;;319.63;277.15;;;;;;;;;;4965365;28;20218;-55
2022/08/27 13:46:47;;;;;;;332.80;282.08;;;;;;;;;;4959772;28;20872;-55
2022/08/27 13:49:18;;;;;;;326.45;273.77;;;;;;;;;;4963579;28;20253;-55
2022/08/27 13:51:44;;;;;;;340.20;284.85;;;;;;;;;;4955844;28;20318;-55
2022/08/27 13:54:14;;;;;;;339.73;286.50;;;;;;;;;;4963217;28;20567;-55
2022/08/27 13:56:46;;;;;;;330.13;277.63;;;;;;;;;;4974884;28;20214;-55
2022/08/27 13:59:14;;;;;;;315.02;267.30;;;;;;;;;;4975193;28;20736;-55
2022/08/27 14:01:53;;;;;;;340.30;276.73;;;;;;;;;;4967005;28;20217;-55
2022/08/27 14:04:21;;;;;;;307.95;252.90;;;;;;;;;;4972640;28;20247;-55
2022/08/27 14:06:48;;;;;;;310.80;273.77;;;;;;;;;;4960914;28;20542;-55
2022/08/27 14:09:22;;;;;;;318.50;266.48;;;;;;;;;;4975820;28;20182;-55